sensor_id;sensor_type;location;lat;lon;timestamp;pressure;altitude;pressure_sealevel;temperature;humidity
23339;BME280;11841;49.368;20.962;2023-06-10T00:01:14;95483.19;;;15.92;100.00
23339;BME280;11841;49.368;20.962;2023-06-10T00:03:59;95485.00;;;15.87;100.00
23339;BME280;11841;49.368;20.962;2023-06-10T00:06:45;95482.31;;;15.87;100.00
23339;BME280;11841;49.368;20.962;2023-06-10T00:09:37;95485.81;;;15.87;100.00
23339;BME280;11841;49.368;20.962;2023-06-10T00:12:23;95476.94;;;15.82;100.00
23339;BME280;11841;49.368;20.962;2023-06-10T00:15:08;95477.16;;;15.75;100.00
23339;BME280;11841;49.368;20.962;2023-06-10T00:17:55;95471.03;;;15.75;100.00
23339;BME280;11841;49.368;20.962;2023-06-10T00:20:47;95467.28;;;15.76;100.00
23339;BME280;11841;49.368;20.962;2023-06-10T00:23:33;95468.09;;;15.76;100.00
23339;BME280;11841;49.368;20.962;2023-06-10T00:26:23;95482.19;;;15.71;100.00
23339;BME280;11841;49.368;20.962;2023-06-10T00:29:10;95471.16;;;15.63;100.00
23339;BME280;11841;49.368;20.962;2023-06-10T00:31:56;95475.47;;;15.64;100.00
23339;BME280;11841;49.368;20.962;2023-06-10T00:34:42;95474.13;;;15.66;100.00
23339;BME280;11841;49.368;20.962;2023-06-10T00:37:28;95468.53;;;15.68;100.00
23339;BME280;11841;49.368;20.962;2023-06-10T00:40:16;95471.47;;;15.66;100.00
23339;BME280;11841;49.368;20.962;2023-06-10T00:43:02;95474.13;;;15.66;100.00
23339;BME280;11841;49.368;20.962;2023-06-10T00:45:47;95471.72;;;15.65;100.00
23339;BME280;11841;49.368;20.962;2023-06-10T00:48:33;95476.81;;;15.66;100.00
23339;BME280;11841;49.368;20.962;2023-06-10T00:51:38;95475.47;;;15.64;100.00
23339;BME280;11841;49.368;20.962;2023-06-10T00:54:26;95475.16;;;15.60;100.00
23339;BME280;11841;49.368;20.962;2023-06-10T00:57:12;95475.41;;;15.59;100.00
23339;BME280;11841;49.368;20.962;2023-06-10T01:00:01;95478.88;;;15.59;100.00
23339;BME280;11841;49.368;20.962;2023-06-10T01:02:52;95477.53;;;15.57;100.00
23339;BME280;11841;49.368;20.962;2023-06-10T01:05:40;95477.78;;;15.55;100.00
23339;BME280;11841;49.368;20.962;2023-06-10T01:11:23;95491.97;;;15.56;100.00
23339;BME280;11841;49.368;20.962;2023-06-10T01:14:10;95487.66;;;15.55;100.00
23339;BME280;11841;49.368;20.962;2023-06-10T01:16:56;95484.72;;;15.56;100.00
23339;BME280;11841;49.368;20.962;2023-06-10T01:19:42;95491.97;;;15.56;100.00
23339;BME280;11841;49.368;20.962;2023-06-10T01:22:28;95487.66;;;15.55;100.00
23339;BME280;11841;49.368;20.962;2023-06-10T01:25:17;95486.06;;;15.54;100.00
23339;BME280;11841;49.368;20.962;2023-06-10T01:28:31;95488.16;;;15.52;100.00
23339;BME280;11841;49.368;20.962;2023-06-10T01:31:42;95494.81;;;15.49;100.00
23339;BME280;11841;49.368;20.962;2023-06-10T01:34:28;95496.69;;;15.49;100.00
23339;BME280;11841;49.368;20.962;2023-06-10T01:37:18;95497.22;;;15.51;100.00
23339;BME280;11841;49.368;20.962;2023-06-10T01:40:05;95498.03;;;15.51;100.00
23339;BME280;11841;49.368;20.962;2023-06-10T01:42:51;95506.88;;;15.52;100.00
23339;BME280;11841;49.368;20.962;2023-06-10T01:45:37;95504.19;;;15.52;100.00
23339;BME280;11841;49.368;20.962;2023-06-10T01:48:23;95507.91;;;15.51;100.00
23339;BME280;11841;49.368;20.962;2023-06-10T01:51:08;95502.56;;;15.51;100.00
23339;BME280;11841;49.368;20.962;2023-06-10T01:53:54;95499.38;;;15.49;100.00
23339;BME280;11841;49.368;20.962;2023-06-10T01:56:39;95503.63;;;15.50;100.00
23339;BME280;11841;49.368;20.962;2023-06-10T01:59:27;95513.25;;;15.51;100.00
23339;BME280;11841;49.368;20.962;2023-06-10T02:02:13;95500.97;;;15.50;100.00
23339;BME280;11841;49.368;20.962;2023-06-10T02:05:00;95497.22;;;15.51;100.00
23339;BME280;11841;49.368;20.962;2023-06-10T02:07:46;95499.91;;;15.51;100.00
23339;BME280;11841;49.368;20.962;2023-06-10T02:10:34;95505.25;;;15.51;100.00
23339;BME280;11841;49.368;20.962;2023-06-10T02:13:19;95495.13;;;15.53;100.00
23339;BME280;11841;49.368;20.962;2023-06-10T02:16:05;95493.50;;;15.52;100.00
23339;BME280;11841;49.368;20.962;2023-06-10T02:18:51;95494.06;;;15.54;100.00
23339;BME280;11841;49.368;20.962;2023-06-10T02:21:39;95497.78;;;15.53;100.00
23339;BME280;11841;49.368;20.962;2023-06-10T02:24:24;95495.13;;;15.53;100.00
23339;BME280;11841;49.368;20.962;2023-06-10T02:27:09;95502.09;;;15.54;100.00
23339;BME280;11841;49.368;20.962;2023-06-10T02:29:56;95496.75;;;15.54;100.00
23339;BME280;11841;49.368;20.962;2023-06-10T02:32:41;95499.41;;;15.54;100.00
23339;BME280;11841;49.368;20.962;2023-06-10T02:35:27;95501.00;;;15.55;100.00
23339;BME280;11841;49.368;20.962;2023-06-10T02:38:12;95501.53;;;15.52;100.00
23339;BME280;11841;49.368;20.962;2023-06-10T02:40:57;95503.09;;;15.48;100.00
23339;BME280;11841;49.368;20.962;2023-06-10T02:43:43;95498.56;;;15.48;100.00
23339;BME280;11841;49.368;20.962;2023-06-10T02:46:28;95498.84;;;15.52;100.00
23339;BME280;11841;49.368;20.962;2023-06-10T02:49:14;95492.44;;;15.53;100.00
23339;BME280;11841;49.368;20.962;2023-06-10T02:51:59;95501.00;;;15.55;100.00
23339;BME280;11841;49.368;20.962;2023-06-10T02:54:44;95505.31;;;15.56;100.00
23339;BME280;11841;49.368;20.962;2023-06-10T02:57:30;95507.75;;;15.57;100.00
23339;BME280;11841;49.368;20.962;2023-06-10T03:00:16;95512.00;;;15.58;100.00
23339;BME280;11841;49.368;20.962;2023-06-10T03:03:02;95518.13;;;15.54;100.00
23339;BME280;11841;49.368;20.962;2023-06-10T03:05:48;95521.53;;;15.49;100.00
23339;BME280;11841;49.368;20.962;2023-06-10T03:08:36;95523.94;;;15.51;100.00
23339;BME280;11841;49.368;20.962;2023-06-10T03:11:22;95523.72;;;15.52;100.00
23339;BME280;11841;49.368;20.962;2023-06-10T03:14:08;95518.13;;;15.54;100.00
23339;BME280;11841;49.368;20.962;2023-06-10T03:16:53;95530.66;;;15.53;100.00
23339;BME280;11841;49.368;20.962;2023-06-10T03:19:39;95528.81;;;15.54;100.00
23339;BME280;11841;49.368;20.962;2023-06-10T03:22:24;95529.91;;;15.58;100.00
23339;BME280;11841;49.368;20.962;2023-06-10T03:25:10;95523.00;;;15.62;100.00
23339;BME280;11841;49.368;20.962;2023-06-10T03:28:01;95525.16;;;15.65;100.00
23339;BME280;11841;49.368;20.962;2023-06-10T03:30:49;95525.47;;;15.68;100.00
23339;BME280;11841;49.368;20.962;2023-06-10T03:33:34;95527.09;;;15.69;100.00
23339;BME280;11841;49.368;20.962;2023-06-10T03:36:23;95523.34;;;15.70;100.00
23339;BME280;11841;49.368;20.962;2023-06-10T03:39:09;95528.19;;;15.73;100.00
23339;BME280;11841;49.368;20.962;2023-06-10T03:41:55;95537.03;;;15.74;100.00
23339;BME280;11841;49.368;20.962;2023-06-10T03:44:43;95535.41;;;15.73;100.00
23339;BME280;11841;49.368;20.962;2023-06-10T03:47:35;95525.25;;;15.75;100.00
23339;BME280;11841;49.368;20.962;2023-06-10T03:50:21;95533.28;;;15.75;100.00
23339;BME280;11841;49.368;20.962;2023-06-10T03:53:08;95534.91;;;15.76;100.00
23339;BME280;11841;49.368;20.962;2023-06-10T03:55:53;95537.88;;;15.80;100.00
23339;BME280;11841;49.368;20.962;2023-06-10T03:58:39;95532.84;;;15.83;100.00
23339;BME280;11841;49.368;20.962;2023-06-10T04:01:24;95528.59;;;15.87;100.00
23339;BME280;11841;49.368;20.962;2023-06-10T04:04:14;95534.22;;;15.91;100.00
23339;BME280;11841;49.368;20.962;2023-06-10T04:07:01;95543.88;;;15.92;100.00
23339;BME280;11841;49.368;20.962;2023-06-10T04:09:47;95543.81;;;15.87;100.00
23339;BME280;11841;49.368;20.962;2023-06-10T04:12:32;95540.66;;;15.90;100.00
23339;BME280;11841;49.368;20.962;2023-06-10T04:15:18;95545.75;;;15.91;100.00
23339;BME280;11841;49.368;20.962;2023-06-10T04:18:04;95535.59;;;15.93;100.00
23339;BME280;11841;49.368;20.962;2023-06-10T04:20:50;95537.25;;;15.99;100.00
23339;BME280;11841;49.368;20.962;2023-06-10T04:23:35;95535.41;;;16.00;100.00
23339;BME280;11841;49.368;20.962;2023-06-10T04:26:22;95544.03;;;16.07;100.00
23339;BME280;11841;49.368;20.962;2023-06-10T04:29:10;95543.25;;;16.11;100.00
23339;BME280;11841;49.368;20.962;2023-06-10T04:31:56;95538.44;;;16.13;100.00
23339;BME280;11841;49.368;20.962;2023-06-10T04:34:41;95534.41;;;16.11;100.00
23339;BME280;11841;49.368;20.962;2023-06-10T04:37:27;95545.09;;;16.11;100.00
23339;BME280;11841;49.368;20.962;2023-06-10T04:40:14;95540.00;;;16.09;100.00
23339;BME280;11841;49.368;20.962;2023-06-10T04:43:01;95535.75;;;16.08;100.00
23339;BME280;11841;49.368;20.962;2023-06-10T04:45:46;95538.44;;;16.13;100.00
23339;BME280;11841;49.368;20.962;2023-06-10T04:48:32;95543.81;;;16.13;100.00
23339;BME280;11841;49.368;20.962;2023-06-10T04:51:20;95538.19;;;16.15;100.00
23339;BME280;11841;49.368;20.962;2023-06-10T04:54:05;95537.94;;;16.16;100.00
23339;BME280;11841;49.368;20.962;2023-06-10T04:56:51;95535.84;;;16.23;100.00
23339;BME280;11841;49.368;20.962;2023-06-10T04:59:38;95545.78;;;16.28;100.00
23339;BME280;11841;49.368;20.962;2023-06-10T05:02:23;95540.72;;;16.31;100.00
23339;BME280;11841;49.368;20.962;2023-06-10T05:05:09;95541.03;;;16.35;100.00
23339;BME280;11841;49.368;20.962;2023-06-10T05:07:55;95534.38;;;16.37;100.00
23339;BME280;11841;49.368;20.962;2023-06-10T05:10:40;95537.81;;;16.38;100.00
23339;BME280;11841;49.368;20.962;2023-06-10T05:13:27;95546.16;;;16.41;100.00
23339;BME280;11841;49.368;20.962;2023-06-10T05:16:12;95543.53;;;16.46;100.00
23339;BME280;11841;49.368;20.962;2023-06-10T05:19:01;95544.66;;;16.50;100.00
23339;BME280;11841;49.368;20.962;2023-06-10T05:21:51;95543.31;;;16.53;100.00
23339;BME280;11841;49.368;20.962;2023-06-10T05:24:36;95555.13;;;16.57;100.00
23339;BME280;11841;49.368;20.962;2023-06-10T05:27:21;95552.19;;;16.58;100.00
23339;BME280;11841;49.368;20.962;2023-06-10T05:30:07;95559.19;;;16.59;100.00
23339;BME280;11841;49.368;20.962;2023-06-10T05:32:53;95555.47;;;16.65;100.00
23339;BME280;11841;49.368;20.962;2023-06-10T05:35:40;95557.09;;;16.71;100.00
23339;BME280;11841;49.368;20.962;2023-06-10T05:38:26;95554.94;;;16.68;100.00
23339;BME280;11841;49.368;20.962;2023-06-10T05:41:11;95557.91;;;16.72;100.00
23339;BME280;11841;49.368;20.962;2023-06-10T05:43:57;95554.44;;;16.76;100.00
23339;BME280;11841;49.368;20.962;2023-06-10T05:46:42;95557.66;;;16.78;100.00
23339;BME280;11841;49.368;20.962;2023-06-10T05:49:31;95567.88;;;16.81;100.00
23339;BME280;11841;49.368;20.962;2023-06-10T05:52:17;95559.38;;;16.89;100.00
23339;BME280;11841;49.368;20.962;2023-06-10T05:55:04;95559.69;;;16.98;100.00
23339;BME280;11841;49.368;20.962;2023-06-10T05:57:58;95563.72;;;17.06;100.00
23339;BME280;11841;49.368;20.962;2023-06-10T06:00:45;95558.94;;;17.13;100.00
23339;BME280;11841;49.368;20.962;2023-06-10T06:03:30;95566.44;;;17.16;100.00
23339;BME280;11841;49.368;20.962;2023-06-10T06:06:19;95563.75;;;17.16;100.00
23339;BME280;11841;49.368;20.962;2023-06-10T06:09:07;95565.91;;;17.14;100.00
23339;BME280;11841;49.368;20.962;2023-06-10T06:11:53;95565.38;;;17.12;100.00
23339;BME280;11841;49.368;20.962;2023-06-10T06:14:38;95558.94;;;17.13;100.00
23339;BME280;11841;49.368;20.962;2023-06-10T06:17:24;95560.31;;;17.15;100.00
23339;BME280;11841;49.368;20.962;2023-06-10T06:20:13;95556.56;;;17.21;100.00
23339;BME280;11841;49.368;20.962;2023-06-10T06:23:02;95549.09;;;17.28;100.00
23339;BME280;11841;49.368;20.962;2023-06-10T06:25:47;95548.59;;;17.36;100.00
23339;BME280;11841;49.368;20.962;2023-06-10T06:28:33;95558.81;;;17.39;100.00
23339;BME280;11841;49.368;20.962;2023-06-10T06:31:19;95561.22;;;17.41;100.00
23339;BME280;11841;49.368;20.962;2023-06-10T06:34:04;95560.19;;;17.47;100.00
23339;BME280;11841;49.368;20.962;2023-06-10T06:36:50;95559.16;;;17.53;100.00
23339;BME280;11841;49.368;20.962;2023-06-10T06:39:35;95560.75;;;17.59;100.00
23339;BME280;11841;49.368;20.962;2023-06-10T06:42:21;95568.81;;;17.64;100.00
23339;BME280;11841;49.368;20.962;2023-06-10T06:45:06;95574.19;;;17.69;100.00
23339;BME280;11841;49.368;20.962;2023-06-10T06:47:52;95584.13;;;17.73;100.00
23339;BME280;11841;49.368;20.962;2023-06-10T06:50:38;95573.94;;;17.75;100.00
23339;BME280;11841;49.368;20.962;2023-06-10T06:53:23;95575.03;;;17.79;100.00
23339;BME280;11841;49.368;20.962;2023-06-10T06:56:10;95567.53;;;17.81;100.00
23339;BME280;11841;49.368;20.962;2023-06-10T06:58:56;95576.63;;;17.80;100.00
23339;BME280;11841;49.368;20.962;2023-06-10T07:01:42;95580.41;;;17.84;100.00
23339;BME280;11841;49.368;20.962;2023-06-10T07:04:27;95577.19;;;17.87;100.00
23339;BME280;11841;49.368;20.962;2023-06-10T07:07:14;95579.88;;;17.92;100.00
23339;BME280;11841;49.368;20.962;2023-06-10T07:09:59;95581.75;;;17.97;100.00
23339;BME280;11841;49.368;20.962;2023-06-10T07:12:44;95576.94;;;17.99;100.00
23339;BME280;11841;49.368;20.962;2023-06-10T07:15:30;95578.56;;;18.05;100.00
23339;BME280;11841;49.368;20.962;2023-06-10T07:18:15;95573.50;;;18.08;100.00
23339;BME280;11841;49.368;20.962;2023-06-10T07:21:02;95577.78;;;18.15;100.00
23339;BME280;11841;49.368;20.962;2023-06-10T07:23:48;95579.13;;;18.17;100.00
23339;BME280;11841;49.368;20.962;2023-06-10T07:26:33;95584.50;;;18.22;100.00
23339;BME280;11841;49.368;20.962;2023-06-10T07:29:19;95583.16;;;18.30;100.00
23339;BME280;11841;49.368;20.962;2023-06-10T07:32:08;95579.69;;;18.39;100.00
23339;BME280;11841;49.368;20.962;2023-06-10T07:34:53;95577.81;;;18.45;100.00
23339;BME280;11841;49.368;20.962;2023-06-10T07:37:39;95580.50;;;18.50;100.00
23339;BME280;11841;49.368;20.962;2023-06-10T07:40:25;95581.59;;;18.54;100.00
23339;BME280;11841;49.368;20.962;2023-06-10T07:43:10;95585.06;;;18.59;100.00
23339;BME280;11841;49.368;20.962;2023-06-10T07:45:56;95590.16;;;18.71;100.00
23339;BME280;11841;49.368;20.962;2023-06-10T07:48:41;95589.88;;;18.82;100.00
23339;BME280;11841;49.368;20.962;2023-06-10T07:51:26;95598.47;;;18.94;100.00
23339;BME280;11841;49.368;20.962;2023-06-10T07:54:12;95601.69;;;19.01;100.00
23339;BME280;11841;49.368;20.962;2023-06-10T07:57:04;95599.00;;;19.01;100.00
23339;BME280;11841;49.368;20.962;2023-06-10T07:59:51;95612.44;;;19.01;100.00
23339;BME280;11841;49.368;20.962;2023-06-10T08:02:39;95611.59;;;19.01;100.00
23339;BME280;11841;49.368;20.962;2023-06-10T08:05:25;95609.22;;;18.94;100.00
23339;BME280;11841;49.368;20.962;2023-06-10T08:08:13;95620.22;;;18.88;100.00
23339;BME280;11841;49.368;20.962;2023-06-10T08:10:58;95622.09;;;18.82;100.00
23339;BME280;11841;49.368;20.962;2023-06-10T08:13:46;95622.66;;;18.74;100.00
23339;BME280;11841;49.368;20.962;2023-06-10T08:16:32;95624.25;;;18.65;100.00
23339;BME280;11841;49.368;20.962;2023-06-10T08:19:19;95632.06;;;18.62;100.00
23339;BME280;11841;49.368;20.962;2023-06-10T08:22:05;95612.97;;;18.53;100.00
23339;BME280;11841;49.368;20.962;2023-06-10T08:24:50;95621.59;;;18.50;100.00
23339;BME280;11841;49.368;20.962;2023-06-10T08:27:36;95619.44;;;18.52;100.00
23339;BME280;11841;49.368;20.962;2023-06-10T08:30:21;95628.03;;;18.59;100.00
23339;BME280;11841;49.368;20.962;2023-06-10T08:33:07;95624.25;;;18.70;100.00
23339;BME280;11841;49.368;20.962;2023-06-10T08:35:52;95631.25;;;18.76;100.00
23339;BME280;11841;49.368;20.962;2023-06-10T08:38:38;95621.06;;;18.88;100.00
23339;BME280;11841;49.368;20.962;2023-06-10T08:41:25;95632.06;;;18.92;100.00
23339;BME280;11841;49.368;20.962;2023-06-10T08:44:42;95618.63;;;18.92;100.00
23339;BME280;11841;49.368;20.962;2023-06-10T08:47:30;95625.03;;;19.01;100.00
23339;BME280;11841;49.368;20.962;2023-06-10T08:50:23;95636.88;;;19.00;100.00
23339;BME280;11841;49.368;20.962;2023-06-10T08:53:09;95635.00;;;19.00;100.00
23339;BME280;11841;49.368;20.962;2023-06-10T08:56:00;95629.63;;;19.05;100.00
23339;BME280;11841;49.368;20.962;2023-06-10T08:58:48;95628.00;;;19.09;100.00
23339;BME280;11841;49.368;20.962;2023-06-10T09:01:34;95629.84;;;19.09;100.00
23339;BME280;11841;49.368;20.962;2023-06-10T09:04:20;95618.88;;;19.10;100.00
23339;BME280;11841;49.368;20.962;2023-06-10T09:07:06;95632.28;;;19.15;99.23
23339;BME280;11841;49.368;20.962;2023-06-10T09:09:53;95626.38;;;19.18;98.98
23339;BME280;11841;49.368;20.962;2023-06-10T09:12:39;95621.00;;;19.18;99.37
23339;BME280;11841;49.368;20.962;2023-06-10T09:15:27;95629.84;;;19.24;100.00
23339;BME280;11841;49.368;20.962;2023-06-10T09:18:18;95626.63;;;19.22;99.80
23339;BME280;11841;49.368;20.962;2023-06-10T09:21:04;95627.69;;;19.16;99.81
23339;BME280;11841;49.368;20.962;2023-06-10T09:23:50;95613.75;;;19.14;100.00
23339;BME280;11841;49.368;20.962;2023-06-10T09:26:35;95617.22;;;19.14;100.00
23339;BME280;11841;49.368;20.962;2023-06-10T09:29:20;95616.69;;;19.22;100.00
23339;BME280;11841;49.368;20.962;2023-06-10T09:32:07;95611.31;;;19.33;100.00
23339;BME280;11841;49.368;20.962;2023-06-10T09:34:54;95604.00;;;19.43;100.00
23339;BME280;11841;49.368;20.962;2023-06-10T09:37:40;95613.97;;;19.48;99.89
23339;BME280;11841;49.368;20.962;2023-06-10T09:40:26;95614.75;;;19.48;98.90
23339;BME280;11841;49.368;20.962;2023-06-10T09:43:12;95610.19;;;19.49;98.43
23339;BME280;11841;49.368;20.962;2023-06-10T09:45:58;95613.97;;;19.48;98.68
23339;BME280;11841;49.368;20.962;2023-06-10T09:48:45;95607.22;;;19.50;98.82
23339;BME280;11841;49.368;20.962;2023-06-10T09:51:32;95613.91;;;19.58;97.69
23339;BME280;11841;49.368;20.962;2023-06-10T09:54:17;95596.13;;;19.62;96.25
23339;BME280;11841;49.368;20.962;2023-06-10T09:57:07;95611.72;;;19.70;96.19
23339;BME280;11841;49.368;20.962;2023-06-10T09:59:54;95602.50;;;19.81;97.66
23339;BME280;11841;49.368;20.962;2023-06-10T10:02:48;95604.38;;;19.85;95.87
23339;BME280;11841;49.368;20.962;2023-06-10T10:05:34;95603.88;;;19.78;93.80
23339;BME280;11841;49.368;20.962;2023-06-10T10:08:20;95603.63;;;19.75;94.62
23339;BME280;11841;49.368;20.962;2023-06-10T10:11:05;95605.22;;;19.76;94.23
23339;BME280;11841;49.368;20.962;2023-06-10T10:13:51;95606.88;;;19.72;94.12
23339;BME280;11841;49.368;20.962;2023-06-10T10:16:40;95608.16;;;19.79;94.02
23339;BME280;11841;49.368;20.962;2023-06-10T10:19:31;95607.88;;;19.86;93.11
23339;BME280;11841;49.368;20.962;2023-06-10T10:22:20;95601.63;;;19.95;94.24
23339;BME280;11841;49.368;20.962;2023-06-10T10:25:13;95598.56;;;20.12;92.86
23339;BME280;11841;49.368;20.962;2023-06-10T10:28:07;95601.81;;;20.14;91.96
23339;BME280;11841;49.368;20.962;2023-06-10T10:30:59;95601.31;;;20.07;89.78
23339;BME280;11841;49.368;20.962;2023-06-10T10:34:00;95603.47;;;20.05;91.30
23339;BME280;11841;49.368;20.962;2023-06-10T10:36:46;95600.81;;;20.00;91.38
23339;BME280;11841;49.368;20.962;2023-06-10T10:39:34;95602.41;;;20.01;91.75
23339;BME280;11841;49.368;20.962;2023-06-10T10:42:20;95583.28;;;20.02;91.10
23339;BME280;11841;49.368;20.962;2023-06-10T10:45:07;95596.44;;;20.09;91.36
23339;BME280;11841;49.368;20.962;2023-06-10T10:47:54;95587.50;;;20.23;91.50
23339;BME280;11841;49.368;20.962;2023-06-10T10:50:56;95587.41;;;20.33;91.25
23339;BME280;11841;49.368;20.962;2023-06-10T10:53:42;95591.44;;;20.36;91.58
23339;BME280;11841;49.368;20.962;2023-06-10T10:56:29;95590.59;;;20.40;92.31
23339;BME280;11841;49.368;20.962;2023-06-10T10:59:18;95585.13;;;20.51;94.10
23339;BME280;11841;49.368;20.962;2023-06-10T11:02:05;95598.31;;;20.52;92.32
23339;BME280;11841;49.368;20.962;2023-06-10T11:04:54;95588.75;;;20.36;91.15
23339;BME280;11841;49.368;20.962;2023-06-10T11:07:40;95596.38;;;20.24;90.84
23339;BME280;11841;49.368;20.962;2023-06-10T11:10:35;95602.88;;;20.18;91.30
23339;BME280;11841;49.368;20.962;2023-06-10T11:13:21;95597.75;;;20.11;92.48
23339;BME280;11841;49.368;20.962;2023-06-10T11:16:08;95581.38;;;20.08;91.30
23339;BME280;11841;49.368;20.962;2023-06-10T11:18:55;95585.69;;;20.09;92.39
23339;BME280;11841;49.368;20.962;2023-06-10T11:21:57;95584.00;;;20.23;91.14
23339;BME280;11841;49.368;20.962;2023-06-10T11:24:49;95574.78;;;20.34;91.09
23339;BME280;11841;49.368;20.962;2023-06-10T11:27:38;95573.06;;;20.43;91.93
23339;BME280;11841;49.368;20.962;2023-06-10T11:30:25;95576.31;;;20.40;88.45
23339;BME280;11841;49.368;20.962;2023-06-10T11:33:16;95587.38;;;20.38;91.23
23339;BME280;11841;49.368;20.962;2023-06-10T11:36:06;95571.84;;;20.30;88.25
23339;BME280;11841;49.368;20.962;2023-06-10T11:39:10;95583.22;;;20.22;89.07
23339;BME280;11841;49.368;20.962;2023-06-10T11:41:58;95578.06;;;20.26;90.71
23339;BME280;11841;49.368;20.962;2023-06-10T11:44:53;95578.81;;;20.31;90.04
23339;BME280;11841;49.368;20.962;2023-06-10T11:47:39;95576.38;;;20.35;90.76
23339;BME280;11841;49.368;20.962;2023-06-10T11:50:37;95576.38;;;20.35;89.47
23339;BME280;11841;49.368;20.962;2023-06-10T11:53:22;95585.53;;;20.34;91.29
23339;BME280;11841;49.368;20.962;2023-06-10T11:56:07;95578.78;;;20.36;88.58
23339;BME280;11841;49.368;20.962;2023-06-10T11:59:03;95582.81;;;20.39;89.71
23339;BME280;11841;49.368;20.962;2023-06-10T12:01:55;95582.00;;;20.38;87.44
23339;BME280;11841;49.368;20.962;2023-06-10T12:04:40;95567.75;;;20.33;88.08
23339;BME280;11841;49.368;20.962;2023-06-10T12:07:26;95568.28;;;20.35;86.80
23339;BME280;11841;49.368;20.962;2023-06-10T12:10:11;95567.22;;;20.36;87.25
23339;BME280;11841;49.368;20.962;2023-06-10T12:13:03;95562.38;;;20.33;86.77
23339;BME280;11841;49.368;20.962;2023-06-10T12:15:48;95559.44;;;20.29;87.58
23339;BME280;11841;49.368;20.962;2023-06-10T12:18:36;95559.72;;;20.28;88.70
23339;BME280;11841;49.368;20.962;2023-06-10T12:21:24;95557.56;;;20.30;88.56
23339;BME280;11841;49.368;20.962;2023-06-10T12:24:11;95550.56;;;20.29;87.88
23339;BME280;11841;49.368;20.962;2023-06-10T12:26:56;95555.41;;;20.32;87.61
23339;BME280;11841;49.368;20.962;2023-06-10T12:29:51;95555.41;;;20.32;87.92
23339;BME280;11841;49.368;20.962;2023-06-10T12:32:46;95545.19;;;20.29;86.99
23339;BME280;11841;49.368;20.962;2023-06-10T12:35:31;95548.72;;;20.24;86.17
23339;BME280;11841;49.368;20.962;2023-06-10T12:38:25;95542.94;;;20.41;88.87
23339;BME280;11841;49.368;20.962;2023-06-10T12:41:12;95547.06;;;20.62;86.66
23339;BME280;11841;49.368;20.962;2023-06-10T12:43:59;95536.19;;;20.72;85.03
23339;BME280;11841;49.368;20.962;2023-06-10T12:46:44;95530.19;;;20.80;84.90
23339;BME280;11841;49.368;20.962;2023-06-10T12:49:29;95530.34;;;20.94;84.72
23339;BME280;11841;49.368;20.962;2023-06-10T12:52:14;95539.00;;;21.14;85.54
23339;BME280;11841;49.368;20.962;2023-06-10T12:55:00;95537.28;;;21.23;84.09
23339;BME280;11841;49.368;20.962;2023-06-10T12:57:49;95546.47;;;20.99;80.96
23339;BME280;11841;49.368;20.962;2023-06-10T13:13:30;95539.72;;;20.96;84.85
23339;BME280;11841;49.368;20.962;2023-06-10T13:16:15;95551.59;;;21.00;86.10
23339;BME280;11841;49.368;20.962;2023-06-10T13:19:01;95558.59;;;20.96;84.83
23339;BME280;11841;49.368;20.962;2023-06-10T13:21:48;95550.66;;;20.81;83.90
23339;BME280;11841;49.368;20.962;2023-06-10T13:24:33;95562.06;;;20.73;84.77
23339;BME280;11841;49.368;20.962;2023-06-10T13:27:19;95543.25;;;20.68;85.49
23339;BME280;11841;49.368;20.962;2023-06-10T13:30:09;95542.09;;;20.74;86.36
23339;BME280;11841;49.368;20.962;2023-06-10T13:32:55;95536.13;;;20.77;86.30
23339;BME280;11841;49.368;20.962;2023-06-10T13:35:40;95539.13;;;20.76;85.32
23339;BME280;11841;49.368;20.962;2023-06-10T13:38:26;95538.09;;;20.72;84.87
23339;BME280;11841;49.368;20.962;2023-06-10T13:41:11;95537.81;;;20.73;86.04
23339;BME280;11841;49.368;20.962;2023-06-10T13:43:57;95542.28;;;20.83;85.50
23339;BME280;11841;49.368;20.962;2023-06-10T13:46:43;95547.38;;;20.84;84.14
23339;BME280;11841;49.368;20.962;2023-06-10T13:49:31;95556.09;;;20.76;84.84
23339;BME280;11841;49.368;20.962;2023-06-10T13:52:17;95571.31;;;20.62;84.94
23339;BME280;11841;49.368;20.962;2023-06-10T13:55:03;95582.16;;;20.18;87.57
23339;BME280;11841;49.368;20.962;2023-06-10T13:57:48;95574.50;;;19.87;89.47
23339;BME280;11841;49.368;20.962;2023-06-10T14:00:33;95567.38;;;19.57;91.55
23339;BME280;11841;49.368;20.962;2023-06-10T14:03:19;95574.44;;;19.43;93.75
23339;BME280;11841;49.368;20.962;2023-06-10T14:06:04;95569.38;;;19.32;94.84
23339;BME280;11841;49.368;20.962;2023-06-10T14:08:50;95568.84;;;19.19;95.36
23339;BME280;11841;49.368;20.962;2023-06-10T14:11:35;95566.72;;;19.11;96.40
23339;BME280;11841;49.368;20.962;2023-06-10T14:14:20;95572.66;;;19.03;97.52
23339;BME280;11841;49.368;20.962;2023-06-10T14:17:07;95572.94;;;19.02;97.98
23339;BME280;11841;49.368;20.962;2023-06-10T14:19:53;95568.34;;;19.02;98.87
23339;BME280;11841;49.368;20.962;2023-06-10T14:22:38;95573.72;;;19.07;99.17
23339;BME280;11841;49.368;20.962;2023-06-10T14:25:25;95567.28;;;19.08;99.84
23339;BME280;11841;49.368;20.962;2023-06-10T14:28:10;95577.47;;;19.11;100.00
23339;BME280;11841;49.368;20.962;2023-06-10T14:30:56;95576.94;;;19.04;100.00
23339;BME280;11841;49.368;20.962;2023-06-10T14:33:43;95575.91;;;19.00;100.00
23339;BME280;11841;49.368;20.962;2023-06-10T14:36:28;95578.56;;;18.95;100.00
23339;BME280;11841;49.368;20.962;2023-06-10T14:39:14;95577.53;;;18.91;100.00
23339;BME280;11841;49.368;20.962;2023-06-10T14:41:59;95570.00;;;18.93;100.00